Time;durP1;ratioP1;P1;durP2;ratioP2;P2;SDS_P1;SDS_P2;PMS_P1;PMS_P2;Temp;Humidity;BMP_temperature;BMP_pressure;BME280_temperature;BME280_humidity;BME280_pressure;Samples;Min_cycle;Max_cycle;Signal;HPM_P1;HPM_P2
2023/02/22 00:02:09;;;;;;;6.30;3.20;;;;;;;;;;5034647;28;20310;-70
2023/02/22 00:04:38;;;;;;;12.20;4.10;;;;;;;;;;5028958;28;20342;-69
2023/02/22 00:07:03;;;;;;;12.32;4.35;;;;;;;;;;5020009;28;20034;-70
2023/02/22 00:09:29;;;;;;;8.53;4.17;;;;;;;;;;5027147;28;20024;-70
2023/02/22 00:11:54;;;;;;;7.13;3.67;;;;;;;;;;5029312;28;20346;-74
2023/02/22 00:14:19;;;;;;;11.40;5.30;;;;;;;;;;5030000;28;20025;-73
2023/02/22 00:16:44;;;;;;;8.80;3.40;;;;;;;;;;5024919;28;20296;-73
2023/02/22 00:19:10;;;;;;;9.80;3.53;;;;;;;;;;5018950;28;20607;-76
2023/02/22 00:21:36;;;;;;;16.23;4.77;;;;;;;;;;5027745;28;20033;-75
2023/02/22 00:24:15;;;;;;;9.48;3.60;;;;;;;;;;5031089;28;20292;-76
2023/02/22 00:26:41;;;;;;;10.27;4.75;;;;;;;;;;5035557;28;20190;-75
2023/02/22 00:29:07;;;;;;;9.07;3.50;;;;;;;;;;5022282;28;20113;-74
2023/02/22 00:31:36;;;;;;;7.60;4.05;;;;;;;;;;5032618;28;20025;-72
2023/02/22 00:34:01;;;;;;;9.05;4.20;;;;;;;;;;5028560;28;20021;-71
2023/02/22 00:36:26;;;;;;;9.07;4.67;;;;;;;;;;5026291;28;20021;-73
2023/02/22 00:38:51;;;;;;;7.10;3.63;;;;;;;;;;5018902;28;20280;-72
2023/02/22 00:41:17;;;;;;;11.00;4.43;;;;;;;;;;5027520;28;20337;-72
2023/02/22 00:43:42;;;;;;;10.75;3.85;;;;;;;;;;5028623;28;20296;-72
2023/02/22 00:46:07;;;;;;;7.80;3.43;;;;;;;;;;5029518;28;20392;-71
2023/02/22 00:48:32;;;;;;;7.27;3.93;;;;;;;;;;5028508;28;20287;-72
2023/02/22 00:50:57;;;;;;;9.00;4.25;;;;;;;;;;5027432;28;20280;-71
2023/02/22 00:53:24;;;;;;;8.05;4.50;;;;;;;;;;5029372;28;20075;-75
2023/02/22 00:55:49;;;;;;;9.40;4.45;;;;;;;;;;5024848;28;20018;-74
2023/02/22 00:58:15;;;;;;;9.05;4.22;;;;;;;;;;5036801;28;20096;-75
2023/02/22 01:00:41;;;;;;;11.30;4.47;;;;;;;;;;5029305;28;20460;-74
2023/02/22 01:03:07;;;;;;;9.90;4.18;;;;;;;;;;5029334;28;20021;-75
2023/02/22 01:05:32;;;;;;;12.23;4.60;;;;;;;;;;5029066;28;20037;-75
2023/02/22 01:07:59;;;;;;;11.30;3.63;;;;;;;;;;5030018;28;20065;-78
2023/02/22 01:10:28;;;;;;;13.13;4.80;;;;;;;;;;5029155;28;20064;-73
2023/02/22 01:12:54;;;;;;;17.73;4.25;;;;;;;;;;5017609;28;20021;-73
2023/02/22 01:21:07;;;;;;;10.15;4.20;;;;;;;;;;4752585;22;20073;-69
2023/02/22 01:23:32;;;;;;;7.43;3.30;;;;;;;;;;5031848;23;20072;-67
2023/02/22 01:25:58;;;;;;;12.60;4.07;;;;;;;;;;5027606;28;20376;-71
2023/02/22 01:28:23;;;;;;;7.80;4.20;;;;;;;;;;5021265;28;20029;-69
2023/02/22 01:30:48;;;;;;;8.43;3.83;;;;;;;;;;5028211;28;20052;-68
2023/02/22 01:33:14;;;;;;;9.80;4.05;;;;;;;;;;5026984;28;20284;-70
2023/02/22 01:35:40;;;;;;;6.43;3.20;;;;;;;;;;5010437;28;20034;-79
2023/02/22 01:38:07;;;;;;;7.03;3.83;;;;;;;;;;5004835;28;20073;-70
2023/02/22 01:40:36;;;;;;;9.52;4.25;;;;;;;;;;5014947;28;20029;-67
2023/02/22 01:43:04;;;;;;;8.60;3.58;;;;;;;;;;5028551;28;20040;-69
2023/02/22 01:45:29;;;;;;;9.52;4.43;;;;;;;;;;5021587;28;20189;-68
2023/02/22 01:48:10;;;;;;;13.27;4.25;;;;;;;;;;5026423;28;20132;-69
2023/02/22 01:50:37;;;;;;;8.98;3.90;;;;;;;;;;5026538;28;20026;-69
2023/02/22 01:53:03;;;;;;;11.43;4.10;;;;;;;;;;5017209;28;20041;-68
2023/02/22 01:55:30;;;;;;;8.52;3.80;;;;;;;;;;5030091;28;20065;-68
2023/02/22 01:57:55;;;;;;;6.45;3.83;;;;;;;;;;5026343;28;20037;-69
2023/02/22 02:00:21;;;;;;;9.80;3.50;;;;;;;;;;5016336;28;20345;-69
2023/02/22 02:02:47;;;;;;;10.70;4.20;;;;;;;;;;5021922;28;20316;-66
2023/02/22 02:05:13;;;;;;;7.40;3.22;;;;;;;;;;5020270;28;20041;-65
2023/02/22 02:07:39;;;;;;;6.80;3.28;;;;;;;;;;5013365;28;20396;-66
2023/02/22 02:10:13;;;;;;;12.52;4.43;;;;;;;;;;5012466;28;20472;-68
2023/02/22 02:12:39;;;;;;;5.75;3.38;;;;;;;;;;5018773;28;20044;-73
2023/02/22 02:15:24;;;;;;;8.18;3.90;;;;;;;;;;5014309;28;20990;-67
2023/02/22 02:17:50;;;;;;;9.65;4.00;;;;;;;;;;5029746;28;20040;-68
2023/02/22 02:20:22;;;;;;;9.75;3.92;;;;;;;;;;5022308;28;20022;-68
2023/02/22 02:22:51;;;;;;;9.15;4.20;;;;;;;;;;4996998;28;20040;-68
2023/02/22 02:25:16;;;;;;;7.82;3.42;;;;;;;;;;5005383;28;20034;-69
2023/02/22 02:27:52;;;;;;;10.13;3.95;;;;;;;;;;5020020;28;20288;-67
2023/02/22 02:30:52;;;;;;;9.27;3.08;;;;;;;;;;5009367;28;20092;-67
2023/02/22 02:33:20;;;;;;;10.75;3.92;;;;;;;;;;4912727;29;20028;-66
2023/02/22 02:35:57;;;;;;;7.75;4.32;;;;;;;;;;4983387;28;20045;-68
2023/02/22 02:38:41;;;;;;;8.20;3.67;;;;;;;;;;4988400;28;20117;-69
2023/02/22 02:41:07;;;;;;;7.72;3.63;;;;;;;;;;4993711;28;20034;-69
2023/02/22 02:43:38;;;;;;;10.43;3.93;;;;;;;;;;5007885;28;20354;-68
2023/02/22 02:46:09;;;;;;;11.73;3.25;;;;;;;;;;5002225;28;20330;-68
2023/02/22 02:48:37;;;;;;;7.68;3.50;;;;;;;;;;5006571;28;20049;-68
2023/02/22 02:51:04;;;;;;;9.05;4.25;;;;;;;;;;4992115;28;20114;-64
2023/02/22 02:53:32;;;;;;;7.78;3.58;;;;;;;;;;5011653;28;20461;-73
2023/02/22 02:55:58;;;;;;;14.82;4.00;;;;;;;;;;5014090;28;20044;-71
2023/02/22 02:58:23;;;;;;;9.07;4.00;;;;;;;;;;5013511;28;20105;-72
2023/02/22 03:00:51;;;;;;;7.93;4.25;;;;;;;;;;5014880;28;20508;-72
2023/02/22 03:03:16;;;;;;;10.40;3.80;;;;;;;;;;5005158;28;20032;-70
2023/02/22 03:05:41;;;;;;;9.67;3.97;;;;;;;;;;4999725;28;20029;-73
2023/02/22 03:08:12;;;;;;;10.37;5.23;;;;;;;;;;5008792;28;20029;-72
2023/02/22 03:10:54;;;;;;;10.73;4.03;;;;;;;;;;5008006;28;20033;-77
2023/02/22 03:13:19;;;;;;;5.88;3.60;;;;;;;;;;5001729;28;20029;-77
2023/02/22 03:15:47;;;;;;;8.90;4.07;;;;;;;;;;5007323;28;20464;-78
2023/02/22 03:18:33;;;;;;;8.25;3.70;;;;;;;;;;4979300;28;20022;-78
2023/02/22 03:21:00;;;;;;;7.28;3.45;;;;;;;;;;5000606;28;20056;-77
2023/02/22 03:23:28;;;;;;;7.88;4.05;;;;;;;;;;5010794;28;20483;-78
2023/02/22 03:25:56;;;;;;;8.35;3.35;;;;;;;;;;5008517;28;20591;-78
2023/02/22 03:28:25;;;;;;;6.03;2.97;;;;;;;;;;4996340;28;20467;-72
2023/02/22 03:30:59;;;;;;;9.63;3.63;;;;;;;;;;5014472;28;20227;-67
2023/02/22 03:33:32;;;;;;;9.55;4.90;;;;;;;;;;5009647;28;20080;-68
2023/02/22 03:35:59;;;;;;;8.32;4.60;;;;;;;;;;5005177;28;20415;-68
2023/02/22 03:38:26;;;;;;;10.23;4.30;;;;;;;;;;5005425;28;20065;-67
2023/02/22 03:40:53;;;;;;;7.60;4.15;;;;;;;;;;5010384;28;20033;-66
2023/02/22 03:43:23;;;;;;;8.40;3.92;;;;;;;;;;5009984;28;20053;-66
2023/02/22 03:45:49;;;;;;;8.77;4.18;;;;;;;;;;5027831;28;20083;-79
2023/02/22 03:48:20;;;;;;;9.70;4.38;;;;;;;;;;5009090;28;20480;-67
2023/02/22 03:50:47;;;;;;;7.97;4.35;;;;;;;;;;5028705;28;20021;-68
2023/02/22 03:53:12;;;;;;;7.75;4.10;;;;;;;;;;5015324;28;20030;-69
2023/02/22 03:55:38;;;;;;;10.07;4.75;;;;;;;;;;5029959;28;20029;-69
2023/02/22 03:58:05;;;;;;;8.77;4.30;;;;;;;;;;5029568;28;20080;-69
2023/02/22 04:00:31;;;;;;;9.50;3.95;;;;;;;;;;5029612;28;20295;-69
2023/02/22 04:02:57;;;;;;;8.18;5.05;;;;;;;;;;5037039;28;20060;-64
2023/02/22 04:05:23;;;;;;;8.98;4.50;;;;;;;;;;5031291;28;20511;-79
2023/02/22 04:07:50;;;;;;;8.95;4.20;;;;;;;;;;5011767;28;20363;-64
2023/02/22 04:10:15;;;;;;;11.32;4.10;;;;;;;;;;5027409;28;20119;-64
2023/02/22 04:12:40;;;;;;;9.63;4.13;;;;;;;;;;5029286;28;20676;-64
2023/02/22 04:15:06;;;;;;;8.57;4.32;;;;;;;;;;5028818;28;20272;-65
2023/02/22 04:17:32;;;;;;;9.23;4.90;;;;;;;;;;5028350;28;20120;-64
2023/02/22 04:19:57;;;;;;;8.05;4.45;;;;;;;;;;5027118;28;20425;-65
2023/02/22 04:22:22;;;;;;;11.48;4.53;;;;;;;;;;5026208;28;20033;-70
2023/02/22 04:24:48;;;;;;;8.73;4.40;;;;;;;;;;5024472;28;20034;-68
2023/02/22 04:27:13;;;;;;;8.10;4.00;;;;;;;;;;5026457;28;20344;-67
2023/02/22 04:29:39;;;;;;;9.05;4.18;;;;;;;;;;5020203;28;20056;-66
2023/02/22 04:32:05;;;;;;;10.23;4.20;;;;;;;;;;5011456;28;20049;-68
2023/02/22 04:34:30;;;;;;;8.57;4.22;;;;;;;;;;5031970;28;20687;-68
2023/02/22 04:36:55;;;;;;;9.83;4.20;;;;;;;;;;5028291;28;20033;-68
2023/02/22 04:39:20;;;;;;;10.82;5.28;;;;;;;;;;5026496;28;20299;-67
2023/02/22 04:41:46;;;;;;;7.20;4.33;;;;;;;;;;5029392;28;20031;-68
2023/02/22 04:44:11;;;;;;;11.15;4.07;;;;;;;;;;5029597;28;20029;-79
2023/02/22 04:46:36;;;;;;;8.20;4.45;;;;;;;;;;5025560;28;20037;-77
2023/02/22 04:49:03;;;;;;;11.98;5.18;;;;;;;;;;5026173;28;20111;-79
2023/02/22 04:51:28;;;;;;;11.15;4.65;;;;;;;;;;5021429;28;20498;-79
2023/02/22 04:53:53;;;;;;;10.05;4.28;;;;;;;;;;5011508;28;20033;-80
2023/02/22 04:56:19;;;;;;;11.35;4.95;;;;;;;;;;5029354;28;20419;-79
2023/02/22 04:58:44;;;;;;;11.95;5.40;;;;;;;;;;5010914;28;20025;-74
2023/02/22 05:01:09;;;;;;;9.50;4.22;;;;;;;;;;5011044;28;20116;-70
2023/02/22 05:03:37;;;;;;;8.35;4.35;;;;;;;;;;5023234;28;20135;-80
2023/02/22 05:06:03;;;;;;;8.23;4.40;;;;;;;;;;5032728;28;20045;-80
2023/02/22 05:08:28;;;;;;;9.00;4.18;;;;;;;;;;5033400;28;20057;-78
2023/02/22 05:10:53;;;;;;;9.25;4.53;;;;;;;;;;5027872;28;20410;-79
2023/02/22 05:13:19;;;;;;;9.25;5.13;;;;;;;;;;5027278;28;20059;-78
2023/02/22 05:15:44;;;;;;;10.80;4.60;;;;;;;;;;5024872;28;20375;-78
2023/02/22 05:18:09;;;;;;;8.65;4.68;;;;;;;;;;5025260;28;20843;-67
2023/02/22 05:20:35;;;;;;;13.20;4.83;;;;;;;;;;5023984;28;20029;-67
2023/02/22 05:23:01;;;;;;;11.00;5.22;;;;;;;;;;5027377;28;20076;-68
2023/02/22 05:25:26;;;;;;;10.35;5.65;;;;;;;;;;5026340;28;20345;-66
2023/02/22 05:27:52;;;;;;;15.68;4.45;;;;;;;;;;5025164;28;20029;-69
2023/02/22 05:30:19;;;;;;;10.02;5.20;;;;;;;;;;5027282;28;20036;-67
2023/02/22 05:32:45;;;;;;;10.45;4.65;;;;;;;;;;5032203;28;20095;-67
2023/02/22 05:35:10;;;;;;;10.23;5.38;;;;;;;;;;5031272;28;20088;-68
2023/02/22 05:37:36;;;;;;;10.47;4.43;;;;;;;;;;5011259;28;20044;-68
2023/02/22 05:40:01;;;;;;;8.60;5.00;;;;;;;;;;5035811;28;20278;-67
2023/02/22 05:42:26;;;;;;;11.63;5.40;;;;;;;;;;5028289;28;20603;-67
2023/02/22 05:44:52;;;;;;;11.70;5.97;;;;;;;;;;5028614;28;20284;-70
2023/02/22 05:47:17;;;;;;;12.07;5.72;;;;;;;;;;5027757;28;20951;-67
2023/02/22 05:49:42;;;;;;;8.52;4.97;;;;;;;;;;5029662;28;20075;-70
2023/02/22 05:52:07;;;;;;;10.70;5.20;;;;;;;;;;5029891;28;20021;-68
2023/02/22 05:54:33;;;;;;;14.73;5.80;;;;;;;;;;5024753;28;20037;-67
2023/02/22 05:56:58;;;;;;;12.50;5.27;;;;;;;;;;5027857;28;20288;-74
2023/02/22 05:59:23;;;;;;;14.90;5.60;;;;;;;;;;5029632;28;20280;-72
2023/02/22 06:01:48;;;;;;;13.25;6.43;;;;;;;;;;5027204;28;20272;-71
2023/02/22 06:04:13;;;;;;;11.00;5.20;;;;;;;;;;5028623;28;20519;-72
2023/02/22 06:06:39;;;;;;;11.13;7.30;;;;;;;;;;5029228;28;20292;-72
2023/02/22 06:09:04;;;;;;;15.53;6.97;;;;;;;;;;5030067;28;20091;-72
2023/02/22 06:11:29;;;;;;;13.60;5.80;;;;;;;;;;5032770;28;20363;-74
2023/02/22 06:13:55;;;;;;;13.85;5.75;;;;;;;;;;5011874;28;20445;-64
2023/02/22 06:16:21;;;;;;;11.18;5.75;;;;;;;;;;5026932;28;20092;-68
2023/02/22 06:18:46;;;;;;;16.65;7.13;;;;;;;;;;5030563;28;20030;-68
2023/02/22 06:21:12;;;;;;;13.82;5.68;;;;;;;;;;5025645;28;20025;-69
2023/02/22 06:23:37;;;;;;;11.57;5.80;;;;;;;;;;5026290;28;20025;-71
2023/02/22 06:26:02;;;;;;;10.33;5.20;;;;;;;;;;5027563;28;20284;-69
2023/02/22 06:28:27;;;;;;;12.52;5.22;;;;;;;;;;5026615;28;20283;-69
2023/02/22 06:30:53;;;;;;;11.30;5.33;;;;;;;;;;5023643;28;20495;-79
2023/02/22 06:33:18;;;;;;;10.73;5.30;;;;;;;;;;5029374;28;20314;-79
2023/02/22 06:35:44;;;;;;;9.20;4.93;;;;;;;;;;5024548;28;21201;-78
2023/02/22 06:38:09;;;;;;;13.25;5.07;;;;;;;;;;5029713;28;20284;-79
2023/02/22 06:40:35;;;;;;;9.40;5.18;;;;;;;;;;5030413;28;20018;-78
2023/02/22 06:43:01;;;;;;;15.20;4.80;;;;;;;;;;5039876;28;20029;-78
2023/02/22 06:45:27;;;;;;;9.88;5.22;;;;;;;;;;5029919;28;20045;-81
2023/02/22 06:47:54;;;;;;;10.80;5.75;;;;;;;;;;5032143;28;20029;-80
2023/02/22 06:50:19;;;;;;;11.57;5.60;;;;;;;;;;5021882;28;20039;-73
2023/02/22 06:52:46;;;;;;;11.82;4.85;;;;;;;;;;5031400;28;20022;-81
2023/02/22 06:55:15;;;;;;;12.25;5.93;;;;;;;;;;5017768;28;20040;-83
2023/02/22 06:57:40;;;;;;;11.77;5.82;;;;;;;;;;5031663;28;20018;-82
2023/02/22 07:00:05;;;;;;;12.70;5.55;;;;;;;;;;5031593;28;20026;-81
2023/02/22 07:02:30;;;;;;;9.65;4.82;;;;;;;;;;5032119;28;20521;-81
2023/02/22 07:04:56;;;;;;;11.07;4.77;;;;;;;;;;5032464;28;20112;-80
2023/02/22 07:07:21;;;;;;;11.47;5.03;;;;;;;;;;5031265;28;20371;-67
2023/02/22 07:09:46;;;;;;;10.77;4.93;;;;;;;;;;5030091;28;20329;-68
2023/02/22 07:12:12;;;;;;;15.75;5.80;;;;;;;;;;5031379;28;20391;-64
2023/02/22 07:14:37;;;;;;;12.50;5.88;;;;;;;;;;5037656;28;20025;-66
2023/02/22 07:17:02;;;;;;;9.47;4.63;;;;;;;;;;5032541;28;20626;-66
2023/02/22 07:19:27;;;;;;;11.82;5.10;;;;;;;;;;5029869;28;20278;-65
2023/02/22 07:21:57;;;;;;;13.27;5.63;;;;;;;;;;5030419;28;20048;-66
2023/02/22 07:24:23;;;;;;;14.30;7.38;;;;;;;;;;5030950;28;20821;-67
2023/02/22 07:26:48;;;;;;;13.45;5.70;;;;;;;;;;5031151;28;20113;-63
2023/02/22 07:29:13;;;;;;;9.27;4.50;;;;;;;;;;5029674;28;20053;-71
2023/02/22 07:31:39;;;;;;;15.98;7.72;;;;;;;;;;5010499;28;20022;-72
2023/02/22 07:34:04;;;;;;;15.45;6.07;;;;;;;;;;5030579;28;20037;-72
2023/02/22 07:36:29;;;;;;;11.50;5.57;;;;;;;;;;5030579;28;20076;-75
2023/02/22 07:38:54;;;;;;;13.00;6.00;;;;;;;;;;5030896;28;20287;-73
2023/02/22 07:41:21;;;;;;;12.53;5.77;;;;;;;;;;5030584;28;20056;-73
2023/02/22 07:43:47;;;;;;;13.82;5.97;;;;;;;;;;5030535;28;20264;-68
2023/02/22 07:46:12;;;;;;;14.10;6.20;;;;;;;;;;5017599;28;20423;-69
2023/02/22 07:48:38;;;;;;;11.13;5.37;;;;;;;;;;5031766;28;20049;-73
2023/02/22 07:51:04;;;;;;;11.07;6.18;;;;;;;;;;5024461;28;20323;-72
2023/02/22 07:53:32;;;;;;;13.52;6.05;;;;;;;;;;5029746;28;20033;-73
2023/02/22 07:55:57;;;;;;;16.20;6.22;;;;;;;;;;5030514;28;20439;-73
2023/02/22 07:58:24;;;;;;;10.15;5.47;;;;;;;;;;5030162;28;20056;-74
2023/02/22 08:00:49;;;;;;;13.55;7.40;;;;;;;;;;5030007;28;20021;-73
2023/02/22 08:03:15;;;;;;;11.95;5.65;;;;;;;;;;5030283;28;20036;-73
2023/02/22 08:05:42;;;;;;;14.65;5.95;;;;;;;;;;5029355;28;20048;-68
2023/02/22 08:08:07;;;;;;;10.13;4.93;;;;;;;;;;5029398;28;20029;-68
2023/02/22 08:10:33;;;;;;;15.40;6.25;;;;;;;;;;5011626;28;20033;-68
2023/02/22 08:12:59;;;;;;;13.55;5.57;;;;;;;;;;5029903;28;20030;-68
2023/02/22 08:15:28;;;;;;;12.45;6.18;;;;;;;;;;5029905;28;20044;-68
2023/02/22 08:17:54;;;;;;;14.48;6.70;;;;;;;;;;5033910;28;20079;-67
2023/02/22 08:20:19;;;;;;;15.13;5.72;;;;;;;;;;5016523;28;20112;-71
2023/02/22 08:22:45;;;;;;;16.67;6.25;;;;;;;;;;5029486;28;20018;-69
2023/02/22 08:25:11;;;;;;;11.55;6.20;;;;;;;;;;5029951;28;20084;-71
2023/02/22 08:27:36;;;;;;;11.55;5.38;;;;;;;;;;5030136;28;21720;-70
2023/02/22 08:30:02;;;;;;;11.13;5.57;;;;;;;;;;5029808;28;20029;-69
2023/02/22 08:32:27;;;;;;;14.68;6.40;;;;;;;;;;5027473;28;20022;-69
2023/02/22 08:34:52;;;;;;;10.53;5.43;;;;;;;;;;5029685;28;20087;-70
2023/02/22 08:37:18;;;;;;;11.70;6.77;;;;;;;;;;5029459;28;20018;-69
2023/02/22 08:39:43;;;;;;;13.68;6.78;;;;;;;;;;5029324;28;20314;-70
2023/02/22 08:42:09;;;;;;;11.00;5.47;;;;;;;;;;5029137;28;20025;-72
2023/02/22 08:44:35;;;;;;;11.18;5.60;;;;;;;;;;5011695;28;20113;-73
2023/02/22 08:47:00;;;;;;;9.57;5.22;;;;;;;;;;5029605;28;20155;-73
2023/02/22 08:49:25;;;;;;;14.23;6.13;;;;;;;;;;5023277;28;20273;-73
2023/02/22 08:51:50;;;;;;;9.13;5.45;;;;;;;;;;5035727;28;20172;-73
2023/02/22 08:54:17;;;;;;;11.23;5.80;;;;;;;;;;5029711;28;20676;-72
2023/02/22 08:56:42;;;;;;;12.00;5.72;;;;;;;;;;5028922;28;20029;-74
2023/02/22 08:59:07;;;;;;;14.82;7.15;;;;;;;;;;5029573;28;20084;-72
2023/02/22 09:01:33;;;;;;;11.37;6.87;;;;;;;;;;5010768;28;20025;-70
2023/02/22 09:03:58;;;;;;;13.73;7.75;;;;;;;;;;5028336;28;20268;-70
2023/02/22 09:06:24;;;;;;;18.20;6.50;;;;;;;;;;5028296;28;20037;-69
2023/02/22 09:08:49;;;;;;;14.27;6.83;;;;;;;;;;5027738;28;20027;-70
2023/02/22 09:11:14;;;;;;;13.20;6.10;;;;;;;;;;5028051;28;20284;-70
2023/02/22 09:13:39;;;;;;;12.27;6.90;;;;;;;;;;5028123;28;20522;-71
2023/02/22 09:16:05;;;;;;;15.52;7.18;;;;;;;;;;5028340;28;20125;-70
2023/02/22 09:18:31;;;;;;;13.25;7.32;;;;;;;;;;5029279;28;20742;-70
2023/02/22 09:20:56;;;;;;;14.57;6.53;;;;;;;;;;5029082;28;20029;-70
2023/02/22 09:23:22;;;;;;;12.15;7.55;;;;;;;;;;5027025;28;20094;-70
2023/02/22 09:25:47;;;;;;;15.57;7.30;;;;;;;;;;5028801;28;20033;-69
2023/02/22 09:28:12;;;;;;;15.53;8.23;;;;;;;;;;5029028;28;20040;-70
2023/02/22 09:30:38;;;;;;;16.67;7.15;;;;;;;;;;5027235;28;20268;-69
2023/02/22 09:33:08;;;;;;;16.42;8.25;;;;;;;;;;5028395;28;20040;-70
2023/02/22 09:35:34;;;;;;;17.42;8.75;;;;;;;;;;5029198;28;20088;-74
2023/02/22 09:38:00;;;;;;;20.60;9.35;;;;;;;;;;5029054;28;20063;-82
2023/02/22 09:40:28;;;;;;;19.77;8.60;;;;;;;;;;5029481;28;20029;-82
2023/02/22 09:43:06;;;;;;;20.13;8.80;;;;;;;;;;5029433;28;20025;-83
2023/02/22 09:45:35;;;;;;;22.55;8.40;;;;;;;;;;5029425;28;20044;-84
2023/02/22 09:48:02;;;;;;;16.13;8.05;;;;;;;;;;5028937;28;20036;-84
2023/02/22 09:50:29;;;;;;;14.40;7.55;;;;;;;;;;5020821;28;20493;-82
2023/02/22 09:53:05;;;;;;;16.48;8.20;;;;;;;;;;5010688;28;20037;-70
2023/02/22 09:55:32;;;;;;;13.68;7.28;;;;;;;;;;5036376;28;20128;-71
2023/02/22 09:58:00;;;;;;;14.57;7.22;;;;;;;;;;5026935;28;20377;-68
2023/02/22 10:00:36;;;;;;;14.52;7.53;;;;;;;;;;5027479;28;20034;-68
2023/02/22 10:03:19;;;;;;;17.58;8.10;;;;;;;;;;5027243;28;20041;-67
2023/02/22 10:06:13;;;;;;;14.15;6.32;;;;;;;;;;5027943;28;20040;-67
2023/02/22 10:08:39;;;;;;;12.75;7.60;;;;;;;;;;5019045;28;20640;-67
2023/02/22 10:11:04;;;;;;;12.60;6.80;;;;;;;;;;5027680;28;20072;-69
2023/02/22 10:13:38;;;;;;;14.82;6.18;;;;;;;;;;5028849;28;20032;-80
2023/02/22 10:16:14;;;;;;;15.13;7.43;;;;;;;;;;5030792;28;20033;-68
2023/02/22 10:18:49;;;;;;;11.05;6.20;;;;;;;;;;5032294;28;20033;-69
2023/02/22 10:21:20;;;;;;;9.75;5.85;;;;;;;;;;5031882;28;20112;-69
2023/02/22 10:24:12;;;;;;;9.27;5.93;;;;;;;;;;5031953;28;20131;-68
2023/02/22 10:26:40;;;;;;;11.95;5.47;;;;;;;;;;5036474;28;20045;-69
2023/02/22 10:29:09;;;;;;;11.60;5.80;;;;;;;;;;5033005;28;20142;-68
2023/02/22 10:31:37;;;;;;;15.47;6.63;;;;;;;;;;5029364;28;20017;-65
2023/02/22 10:34:04;;;;;;;17.20;6.72;;;;;;;;;;5030383;28;20068;-65
2023/02/22 10:36:30;;;;;;;12.80;6.35;;;;;;;;;;5030544;28;20091;-65
2023/02/22 10:38:58;;;;;;;13.48;6.38;;;;;;;;;;5030914;28;20056;-63
2023/02/22 10:41:35;;;;;;;10.88;5.20;;;;;;;;;;5013748;28;20036;-64
2023/02/22 10:44:01;;;;;;;12.05;7.05;;;;;;;;;;5031257;28;20060;-65
2023/02/22 10:46:27;;;;;;;12.55;5.57;;;;;;;;;;5031607;28;20017;-66
2023/02/22 10:48:55;;;;;;;14.68;7.05;;;;;;;;;;5027323;28;20053;-66
2023/02/22 10:51:20;;;;;;;13.68;5.88;;;;;;;;;;5030801;28;20030;-82
2023/02/22 10:53:53;;;;;;;11.30;6.53;;;;;;;;;;5013568;28;20026;-81
2023/02/22 10:56:20;;;;;;;12.80;6.78;;;;;;;;;;5031812;28;20033;-81
2023/02/22 10:58:45;;;;;;;12.00;5.70;;;;;;;;;;5039194;28;20181;-83
2023/02/22 11:01:25;;;;;;;12.20;6.05;;;;;;;;;;5031025;28;20104;-81
2023/02/22 11:03:50;;;;;;;;;;;;;;;;;;5031872;28;20116;-80
2023/02/22 11:06:18;;;;;;;15.35;6.28;;;;;;;;;;5031513;28;20000;-72
2023/02/22 11:08:49;;;;;;;14.18;6.47;;;;;;;;;;5031174;28;20033;-79
2023/02/22 11:11:24;;;;;;;11.48;5.57;;;;;;;;;;5030621;28;20386;-70
2023/02/22 11:13:54;;;;;;;14.13;7.63;;;;;;;;;;5029790;28;20037;-68
2023/02/22 11:16:26;;;;;;;9.80;5.63;;;;;;;;;;5029867;28;20068;-68
2023/02/22 11:18:59;;;;;;;16.17;6.45;;;;;;;;;;5030349;28;20076;-69
2023/02/22 11:21:24;;;;;;;10.30;6.13;;;;;;;;;;5030174;28;20029;-69
2023/02/22 11:23:59;;;;;;;11.02;5.95;;;;;;;;;;5028958;28;20104;-70
2023/02/22 11:26:25;;;;;;;22.10;6.93;;;;;;;;;;5029833;28;20464;-71
2023/02/22 11:28:54;;;;;;;15.52;7.07;;;;;;;;;;5030751;28;20029;-68
2023/02/22 11:31:21;;;;;;;13.02;7.93;;;;;;;;;;5036660;28;20024;-65
2023/02/22 11:33:57;;;;;;;13.43;6.90;;;;;;;;;;5030719;28;20028;-67
2023/02/22 11:36:30;;;;;;;17.55;7.40;;;;;;;;;;5030179;28;20033;-66
2023/02/22 11:38:58;;;;;;;11.48;6.97;;;;;;;;;;5030558;28;20076;-67
2023/02/22 11:41:27;;;;;;;14.13;6.10;;;;;;;;;;5012311;28;20033;-65
2023/02/22 11:43:53;;;;;;;11.48;6.85;;;;;;;;;;5030874;28;20172;-70
2023/02/22 11:46:18;;;;;;;14.43;6.57;;;;;;;;;;5030527;28;20164;-80
2023/02/22 11:49:04;;;;;;;13.13;7.33;;;;;;;;;;5028365;28;20056;-80
2023/02/22 11:51:52;;;;;;;13.75;7.90;;;;;;;;;;5028005;28;20472;-80
2023/02/22 11:54:28;;;;;;;11.55;6.65;;;;;;;;;;5023531;28;20107;-80
2023/02/22 11:57:15;;;;;;;13.40;6.80;;;;;;;;;;5030587;28;20044;-80
2023/02/22 11:59:55;;;;;;;14.02;7.80;;;;;;;;;;5031316;28;20029;-78
2023/02/22 12:02:20;;;;;;;14.93;7.45;;;;;;;;;;5036857;28;20036;-69
2023/02/22 12:04:54;;;;;;;11.20;6.40;;;;;;;;;;5031782;28;20526;-69
2023/02/22 12:07:36;;;;;;;10.35;6.18;;;;;;;;;;5030344;28;20025;-70
2023/02/22 12:10:14;;;;;;;11.48;6.65;;;;;;;;;;5030271;28;20452;-68
2023/02/22 12:12:54;;;;;;;13.25;7.45;;;;;;;;;;5030199;28;20037;-69
2023/02/22 12:15:27;;;;;;;14.32;7.97;;;;;;;;;;5030605;28;20029;-69
2023/02/22 12:18:14;;;;;;;12.48;7.50;;;;;;;;;;5029998;28;20035;-68
2023/02/22 12:20:44;;;;;;;12.65;7.20;;;;;;;;;;5029989;28;20109;-73
2023/02/22 12:23:28;;;;;;;16.60;7.90;;;;;;;;;;5029567;28;20061;-69
2023/02/22 12:25:57;;;;;;;14.27;7.00;;;;;;;;;;5029404;28;20029;-69
2023/02/22 12:28:28;;;;;;;12.02;7.95;;;;;;;;;;5029927;28;20124;-72
2023/02/22 12:31:05;;;;;;;10.27;6.53;;;;;;;;;;5009392;28;20040;-69
2023/02/22 12:33:37;;;;;;;13.30;8.32;;;;;;;;;;5032684;28;20033;-69
2023/02/22 12:36:02;;;;;;;10.57;6.68;;;;;;;;;;5033802;28;20037;-69
2023/02/22 12:38:38;;;;;;;11.77;6.85;;;;;;;;;;5028693;28;20029;-72
2023/02/22 12:41:07;;;;;;;13.52;7.13;;;;;;;;;;5029554;28;20060;-68
2023/02/22 12:43:44;;;;;;;13.05;7.57;;;;;;;;;;5029563;28;20025;-65
2023/02/22 12:46:12;;;;;;;13.13;7.30;;;;;;;;;;5028917;28;20033;-64
2023/02/22 12:48:43;;;;;;;15.07;8.02;;;;;;;;;;5027466;28;20033;-69
2023/02/22 12:51:27;;;;;;;12.73;8.05;;;;;;;;;;5023314;28;20025;-67
2023/02/22 12:54:00;;;;;;;13.95;7.05;;;;;;;;;;5028758;28;20048;-65
2023/02/22 12:56:37;;;;;;;12.95;7.72;;;;;;;;;;5028674;28;20488;-73
2023/02/22 12:59:07;;;;;;;13.52;7.90;;;;;;;;;;5029213;28;20124;-76
2023/02/22 13:01:37;;;;;;;13.73;8.25;;;;;;;;;;5029325;28;20021;-70
2023/02/22 13:04:03;;;;;;;13.15;7.78;;;;;;;;;;5029159;28;20037;-70
2023/02/22 13:06:37;;;;;;;13.95;7.25;;;;;;;;;;5036771;28;20037;-69
2023/02/22 13:09:23;;;;;;;12.20;8.18;;;;;;;;;;5029030;28;20025;-71
2023/02/22 13:11:48;;;;;;;12.30;7.13;;;;;;;;;;5029094;28;20025;-70
2023/02/22 13:14:13;;;;;;;16.47;8.50;;;;;;;;;;5029215;28;20622;-69
2023/02/22 13:16:45;;;;;;;12.43;6.90;;;;;;;;;;5029727;28;20041;-69
2023/02/22 13:19:17;;;;;;;12.85;6.82;;;;;;;;;;5029033;28;20021;-65
2023/02/22 13:21:56;;;;;;;10.15;6.55;;;;;;;;;;5028909;28;20026;-68
2023/02/22 13:24:29;;;;;;;11.50;7.27;;;;;;;;;;5028945;28;20038;-67
2023/02/22 13:27:05;;;;;;;13.90;7.18;;;;;;;;;;5028408;28;20840;-67
2023/02/22 13:29:35;;;;;;;14.07;7.75;;;;;;;;;;5028627;28;20028;-66
2023/02/22 13:32:26;;;;;;;13.85;7.07;;;;;;;;;;5025783;28;20021;-66
2023/02/22 13:35:00;;;;;;;12.57;7.88;;;;;;;;;;5006597;28;20034;-69
2023/02/22 13:37:28;;;;;;;12.63;7.75;;;;;;;;;;5031982;28;20025;-69
2023/02/22 13:40:01;;;;;;;14.13;7.93;;;;;;;;;;5033382;28;20032;-69
2023/02/22 13:42:35;;;;;;;16.10;6.75;;;;;;;;;;5028126;28;20116;-68
2023/02/22 13:45:06;;;;;;;10.30;6.20;;;;;;;;;;5014966;28;20082;-69
2023/02/22 13:47:41;;;;;;;12.18;6.35;;;;;;;;;;5028964;28;20564;-69
2023/02/22 13:50:06;;;;;;;15.63;6.78;;;;;;;;;;5021465;28;20120;-69
2023/02/22 13:52:32;;;;;;;12.53;7.33;;;;;;;;;;5032209;28;20112;-70
2023/02/22 13:55:00;;;;;;;14.65;6.47;;;;;;;;;;5032540;28;20068;-68
2023/02/22 13:57:27;;;;;;;12.13;6.85;;;;;;;;;;5018009;28;20540;-68
2023/02/22 14:00:10;;;;;;;13.23;6.82;;;;;;;;;;5032134;28;20032;-68
2023/02/22 14:02:54;;;;;;;12.00;6.32;;;;;;;;;;5018776;28;20030;-68
2023/02/22 14:05:46;;;;;;;13.02;7.80;;;;;;;;;;5032205;28;20472;-70
2023/02/22 14:08:14;;;;;;;12.63;7.53;;;;;;;;;;5011869;28;20033;-68
2023/02/22 14:10:42;;;;;;;13.50;7.82;;;;;;;;;;5040633;28;20329;-67
2023/02/22 14:13:07;;;;;;;14.52;7.05;;;;;;;;;;5031772;28;20029;-66
2023/02/22 14:15:34;;;;;;;13.75;7.70;;;;;;;;;;5013792;28;20028;-69
2023/02/22 14:18:00;;;;;;;11.93;7.75;;;;;;;;;;5031466;28;20491;-69
2023/02/22 14:20:31;;;;;;;13.13;7.47;;;;;;;;;;5031539;28;20060;-70
2023/02/22 14:22:57;;;;;;;13.85;7.93;;;;;;;;;;5031923;28;20029;-67
2023/02/22 14:25:39;;;;;;;13.63;8.02;;;;;;;;;;5032152;28;20033;-68
2023/02/22 14:28:27;;;;;;;12.57;7.43;;;;;;;;;;5018853;28;20049;-67
2023/02/22 14:31:03;;;;;;;12.75;7.55;;;;;;;;;;5011025;28;20076;-67
2023/02/22 14:33:48;;;;;;;15.70;7.90;;;;;;;;;;5032041;28;20029;-70
2023/02/22 14:36:14;;;;;;;14.05;7.20;;;;;;;;;;5031699;28;20028;-68
2023/02/22 14:38:42;;;;;;;13.68;7.38;;;;;;;;;;5013553;28;20029;-68
2023/02/22 14:41:08;;;;;;;15.18;7.78;;;;;;;;;;5016144;28;20033;-67
2023/02/22 14:43:35;;;;;;;14.05;7.25;;;;;;;;;;5038027;28;20028;-68
2023/02/22 14:46:04;;;;;;;12.90;7.43;;;;;;;;;;5031505;28;20045;-68
2023/02/22 14:48:41;;;;;;;15.82;6.85;;;;;;;;;;5029925;28;20029;-66